sensor_id;sensor_type;location;lat;lon;timestamp;P1;durP1;ratioP1;P2;durP2;ratioP2
948;SDS011;461;51.436;7.312;2024-02-26T00:23:28;3.73;;;2.37;;
948;SDS011;461;51.436;7.312;2024-02-26T00:25:54;2.20;;;2.00;;
948;SDS011;461;51.436;7.312;2024-02-26T00:28:20;2.50;;;1.90;;
948;SDS011;461;51.436;7.312;2024-02-26T00:30:46;3.10;;;1.90;;
948;SDS011;461;51.436;7.312;2024-02-26T00:33:15;2.83;;;2.10;;
948;SDS011;461;51.436;7.312;2024-02-26T00:35:42;2.47;;;1.93;;
948;SDS011;461;51.436;7.312;2024-02-26T00:38:08;2.50;;;1.80;;
948;SDS011;461;51.436;7.312;2024-02-26T00:40:34;2.63;;;1.67;;
948;SDS011;461;51.436;7.312;2024-02-26T06:44:33;4.60;;;2.90;;
948;SDS011;461;51.436;7.312;2024-02-26T06:46:58;2.40;;;2.20;;
948;SDS011;461;51.436;7.312;2024-02-26T06:49:25;3.70;;;2.70;;
948;SDS011;461;51.436;7.312;2024-02-26T06:51:51;4.13;;;2.33;;
948;SDS011;461;51.436;7.312;2024-02-26T06:54:16;2.37;;;2.17;;
948;SDS011;461;51.436;7.312;2024-02-26T06:56:42;3.63;;;2.90;;
948;SDS011;461;51.436;7.312;2024-02-26T06:59:08;3.40;;;2.40;;
948;SDS011;461;51.436;7.312;2024-02-26T07:01:34;3.40;;;2.50;;
948;SDS011;461;51.436;7.312;2024-02-26T07:03:59;3.00;;;2.50;;
948;SDS011;461;51.436;7.312;2024-02-26T07:06:25;4.40;;;3.07;;
948;SDS011;461;51.436;7.312;2024-02-26T07:08:54;3.70;;;3.40;;
948;SDS011;461;51.436;7.312;2024-02-26T07:11:19;3.67;;;3.00;;
948;SDS011;461;51.436;7.312;2024-02-26T07:13:46;4.70;;;3.20;;
948;SDS011;461;51.436;7.312;2024-02-26T07:16:11;5.33;;;3.40;;
948;SDS011;461;51.436;7.312;2024-02-26T07:18:38;4.10;;;3.00;;
948;SDS011;461;51.436;7.312;2024-02-26T07:21:04;3.40;;;2.90;;
948;SDS011;461;51.436;7.312;2024-02-26T07:23:31;5.03;;;3.27;;
948;SDS011;461;51.436;7.312;2024-02-26T07:25:57;4.27;;;2.87;;
948;SDS011;461;51.436;7.312;2024-02-26T07:28:23;5.23;;;3.63;;
948;SDS011;461;51.436;7.312;2024-02-26T07:30:49;4.53;;;2.93;;
948;SDS011;461;51.436;7.312;2024-02-26T07:33:15;5.60;;;3.23;;
948;SDS011;461;51.436;7.312;2024-02-26T07:35:41;5.67;;;3.20;;
948;SDS011;461;51.436;7.312;2024-02-26T07:38:06;3.83;;;3.53;;
948;SDS011;461;51.436;7.312;2024-02-26T07:40:32;8.50;;;3.23;;
948;SDS011;461;51.436;7.312;2024-02-26T07:42:58;7.03;;;2.90;;
948;SDS011;461;51.436;7.312;2024-02-26T07:45:24;6.23;;;2.97;;
948;SDS011;461;51.436;7.312;2024-02-26T07:47:49;3.63;;;3.33;;
948;SDS011;461;51.436;7.312;2024-02-26T07:50:16;6.70;;;3.13;;
948;SDS011;461;51.436;7.312;2024-02-26T07:52:42;4.60;;;3.10;;
948;SDS011;461;51.436;7.312;2024-02-26T07:55:09;6.73;;;2.90;;
948;SDS011;461;51.436;7.312;2024-02-26T07:57:35;4.60;;;2.50;;
948;SDS011;461;51.436;7.312;2024-02-26T08:00:02;5.43;;;3.60;;
948;SDS011;461;51.436;7.312;2024-02-26T08:02:28;3.20;;;2.90;;
948;SDS011;461;51.436;7.312;2024-02-26T08:04:54;4.80;;;2.80;;
948;SDS011;461;51.436;7.312;2024-02-26T08:07:20;4.37;;;3.73;;
948;SDS011;461;51.436;7.312;2024-02-26T08:09:46;3.10;;;2.80;;
948;SDS011;461;51.436;7.312;2024-02-26T08:12:12;4.93;;;3.10;;
948;SDS011;461;51.436;7.312;2024-02-26T08:14:38;4.30;;;2.90;;
948;SDS011;461;51.436;7.312;2024-02-26T08:17:04;5.00;;;3.40;;
948;SDS011;461;51.436;7.312;2024-02-26T08:19:29;3.00;;;2.70;;
948;SDS011;461;51.436;7.312;2024-02-26T08:21:55;4.77;;;3.27;;
948;SDS011;461;51.436;7.312;2024-02-26T08:24:21;4.00;;;3.20;;
948;SDS011;461;51.436;7.312;2024-02-26T08:26:47;3.40;;;2.77;;
948;SDS011;461;51.436;7.312;2024-02-26T08:29:13;4.20;;;3.00;;
948;SDS011;461;51.436;7.312;2024-02-26T08:31:39;5.83;;;2.87;;
948;SDS011;461;51.436;7.312;2024-02-26T08:34:04;3.60;;;3.30;;
948;SDS011;461;51.436;7.312;2024-02-26T08:36:31;3.67;;;3.17;;
948;SDS011;461;51.436;7.312;2024-02-26T08:38:58;5.57;;;3.60;;
948;SDS011;461;51.436;7.312;2024-02-26T08:41:24;4.80;;;3.17;;
948;SDS011;461;51.436;7.312;2024-02-26T08:43:50;5.47;;;3.13;;
948;SDS011;461;51.436;7.312;2024-02-26T08:46:15;5.53;;;4.03;;
948;SDS011;461;51.436;7.312;2024-02-26T08:48:41;3.93;;;2.90;;
948;SDS011;461;51.436;7.312;2024-02-26T08:51:07;4.23;;;3.00;;
948;SDS011;461;51.436;7.312;2024-02-26T08:53:38;4.63;;;3.47;;
948;SDS011;461;51.436;7.312;2024-02-26T08:56:07;4.47;;;3.43;;
948;SDS011;461;51.436;7.312;2024-02-26T08:58:33;4.80;;;3.40;;
948;SDS011;461;51.436;7.312;2024-02-26T09:00:59;4.60;;;3.50;;
948;SDS011;461;51.436;7.312;2024-02-26T09:03:26;5.97;;;3.60;;
948;SDS011;461;51.436;7.312;2024-02-26T09:08:22;4.57;;;3.90;;
948;SDS011;461;51.436;7.312;2024-02-26T09:10:49;4.53;;;4.07;;
948;SDS011;461;51.436;7.312;2024-02-26T09:13:15;5.40;;;3.50;;
948;SDS011;461;51.436;7.312;2024-02-26T09:15:40;4.07;;;3.43;;
948;SDS011;461;51.436;7.312;2024-02-26T09:18:06;6.00;;;4.17;;
948;SDS011;461;51.436;7.312;2024-02-26T09:20:32;8.40;;;4.50;;
948;SDS011;461;51.436;7.312;2024-02-26T09:22:58;4.37;;;3.43;;
948;SDS011;461;51.436;7.312;2024-02-26T09:25:23;3.93;;;3.57;;
948;SDS011;461;51.436;7.312;2024-02-26T09:27:49;4.53;;;3.90;;
948;SDS011;461;51.436;7.312;2024-02-26T09:30:15;6.10;;;3.67;;
948;SDS011;461;51.436;7.312;2024-02-26T09:32:45;5.30;;;3.30;;
948;SDS011;461;51.436;7.312;2024-02-26T09:35:12;3.83;;;2.63;;
948;SDS011;461;51.436;7.312;2024-02-26T09:37:38;3.70;;;3.10;;
948;SDS011;461;51.436;7.312;2024-02-26T09:40:04;4.03;;;3.60;;
948;SDS011;461;51.436;7.312;2024-02-26T09:42:31;5.10;;;4.00;;
948;SDS011;461;51.436;7.312;2024-02-26T09:45:00;5.07;;;4.00;;
948;SDS011;461;51.436;7.312;2024-02-26T09:47:30;6.17;;;3.47;;
948;SDS011;461;51.436;7.312;2024-02-26T09:49:57;8.40;;;3.73;;
948;SDS011;461;51.436;7.312;2024-02-26T09:52:27;4.80;;;3.17;;
948;SDS011;461;51.436;7.312;2024-02-26T09:54:56;4.43;;;3.60;;
948;SDS011;461;51.436;7.312;2024-02-26T09:57:22;5.67;;;4.07;;
948;SDS011;461;51.436;7.312;2024-02-26T09:59:50;4.97;;;3.60;;
948;SDS011;461;51.436;7.312;2024-02-26T10:02:18;5.20;;;3.33;;
948;SDS011;461;51.436;7.312;2024-02-26T10:04:46;5.80;;;3.67;;
948;SDS011;461;51.436;7.312;2024-02-26T10:07:13;5.20;;;4.17;;
948;SDS011;461;51.436;7.312;2024-02-26T10:09:39;4.60;;;3.40;;
948;SDS011;461;51.436;7.312;2024-02-26T10:12:07;5.43;;;3.80;;
948;SDS011;461;51.436;7.312;2024-02-26T10:14:36;5.17;;;4.13;;
948;SDS011;461;51.436;7.312;2024-02-26T10:17:02;6.00;;;4.60;;
948;SDS011;461;51.436;7.312;2024-02-26T10:19:30;7.67;;;4.40;;
948;SDS011;461;51.436;7.312;2024-02-26T10:21:56;8.00;;;5.00;;
948;SDS011;461;51.436;7.312;2024-02-26T10:24:29;6.93;;;4.60;;
948;SDS011;461;51.436;7.312;2024-02-26T10:26:55;7.37;;;4.30;;
948;SDS011;461;51.436;7.312;2024-02-26T10:29:25;8.83;;;4.43;;
948;SDS011;461;51.436;7.312;2024-02-26T10:31:51;12.30;;;6.03;;
948;SDS011;461;51.436;7.312;2024-02-26T10:34:18;8.53;;;5.20;;
948;SDS011;461;51.436;7.312;2024-02-26T10:36:44;5.93;;;4.37;;
948;SDS011;461;51.436;7.312;2024-02-26T10:39:13;6.00;;;4.23;;
948;SDS011;461;51.436;7.312;2024-02-26T10:41:39;6.70;;;4.23;;
948;SDS011;461;51.436;7.312;2024-02-26T10:44:08;5.10;;;3.90;;
948;SDS011;461;51.436;7.312;2024-02-26T10:46:38;6.10;;;4.27;;
948;SDS011;461;51.436;7.312;2024-02-26T10:49:05;6.53;;;4.63;;
948;SDS011;461;51.436;7.312;2024-02-26T10:51:38;7.40;;;4.80;;
948;SDS011;461;51.436;7.312;2024-02-26T10:54:07;6.03;;;4.10;;
948;SDS011;461;51.436;7.312;2024-02-26T10:56:35;5.07;;;4.10;;
948;SDS011;461;51.436;7.312;2024-02-26T10:59:04;5.30;;;4.40;;
948;SDS011;461;51.436;7.312;2024-02-26T11:01:34;10.00;;;5.00;;
948;SDS011;461;51.436;7.312;2024-02-26T11:04:03;5.47;;;4.10;;
948;SDS011;461;51.436;7.312;2024-02-26T11:06:30;9.40;;;4.47;;
948;SDS011;461;51.436;7.312;2024-02-26T11:08:59;7.67;;;6.20;;
948;SDS011;461;51.436;7.312;2024-02-26T11:11:26;12.10;;;5.40;;
948;SDS011;461;51.436;7.312;2024-02-26T11:13:53;9.17;;;5.50;;
948;SDS011;461;51.436;7.312;2024-02-26T11:16:22;6.63;;;5.07;;
948;SDS011;461;51.436;7.312;2024-02-26T11:18:49;7.50;;;5.03;;
948;SDS011;461;51.436;7.312;2024-02-26T11:21:20;8.47;;;4.90;;
948;SDS011;461;51.436;7.312;2024-02-26T11:24:03;7.70;;;5.27;;
948;SDS011;461;51.436;7.312;2024-02-26T11:29:27;7.90;;;5.97;;
948;SDS011;461;51.436;7.312;2024-02-26T11:31:58;9.80;;;5.63;;
948;SDS011;461;51.436;7.312;2024-02-26T11:34:25;9.60;;;5.70;;
948;SDS011;461;51.436;7.312;2024-02-26T11:36:51;10.20;;;6.53;;
948;SDS011;461;51.436;7.312;2024-02-26T11:39:18;8.00;;;5.77;;
948;SDS011;461;51.436;7.312;2024-02-26T11:41:44;11.00;;;6.60;;
948;SDS011;461;51.436;7.312;2024-02-26T11:49:37;11.00;;;6.50;;
948;SDS011;461;51.436;7.312;2024-02-26T11:52:04;12.90;;;6.37;;
948;SDS011;461;51.436;7.312;2024-02-26T11:59:55;6.03;;;4.53;;
948;SDS011;461;51.436;7.312;2024-02-26T12:02:44;11.00;;;4.83;;
948;SDS011;461;51.436;7.312;2024-02-26T12:05:20;5.87;;;4.57;;
948;SDS011;461;51.436;7.312;2024-02-26T12:08:10;3.93;;;3.40;;
948;SDS011;461;51.436;7.312;2024-02-26T12:13:16;6.33;;;4.83;;
948;SDS011;461;51.436;7.312;2024-02-26T12:15:43;4.40;;;3.93;;
948;SDS011;461;51.436;7.312;2024-02-26T12:18:15;6.53;;;5.47;;
948;SDS011;461;51.436;7.312;2024-02-26T12:20:42;5.90;;;4.27;;
948;SDS011;461;51.436;7.312;2024-02-26T12:23:17;5.60;;;5.03;;
948;SDS011;461;51.436;7.312;2024-02-26T12:25:43;17.57;;;7.17;;
948;SDS011;461;51.436;7.312;2024-02-26T12:30:46;9.30;;;6.13;;
948;SDS011;461;51.436;7.312;2024-02-26T12:33:12;9.10;;;5.70;;
948;SDS011;461;51.436;7.312;2024-02-26T12:35:38;10.10;;;6.77;;
948;SDS011;461;51.436;7.312;2024-02-26T12:38:04;11.93;;;6.73;;
948;SDS011;461;51.436;7.312;2024-02-26T12:40:30;12.47;;;6.10;;
948;SDS011;461;51.436;7.312;2024-02-26T12:42:56;10.13;;;6.33;;
948;SDS011;461;51.436;7.312;2024-02-26T12:45:23;8.90;;;5.60;;
948;SDS011;461;51.436;7.312;2024-02-26T12:47:51;8.60;;;7.10;;
948;SDS011;461;51.436;7.312;2024-02-26T12:50:17;12.87;;;6.23;;
948;SDS011;461;51.436;7.312;2024-02-26T18:55:19;6.00;;;4.07;;
948;SDS011;461;51.436;7.312;2024-02-26T18:57:45;5.77;;;4.03;;
948;SDS011;461;51.436;7.312;2024-02-26T19:00:11;4.73;;;4.27;;
948;SDS011;461;51.436;7.312;2024-02-26T19:02:37;5.47;;;3.60;;
948;SDS011;461;51.436;7.312;2024-02-26T19:05:03;4.23;;;3.83;;
948;SDS011;461;51.436;7.312;2024-02-26T19:07:31;5.13;;;2.90;;
948;SDS011;461;51.436;7.312;2024-02-26T19:09:57;5.23;;;4.57;;
948;SDS011;461;51.436;7.312;2024-02-26T19:12:22;5.93;;;4.20;;
948;SDS011;461;51.436;7.312;2024-02-26T19:14:49;5.13;;;3.87;;
948;SDS011;461;51.436;7.312;2024-02-26T19:17:15;7.57;;;5.10;;
948;SDS011;461;51.436;7.312;2024-02-26T19:19:41;4.37;;;3.67;;
948;SDS011;461;51.436;7.312;2024-02-26T19:22:07;6.27;;;4.70;;
948;SDS011;461;51.436;7.312;2024-02-26T19:24:33;8.70;;;4.60;;
948;SDS011;461;51.436;7.312;2024-02-26T19:26:59;4.83;;;4.43;;
948;SDS011;461;51.436;7.312;2024-02-26T19:29:25;8.47;;;4.67;;
948;SDS011;461;51.436;7.312;2024-02-26T19:31:51;5.87;;;4.63;;
948;SDS011;461;51.436;7.312;2024-02-26T19:34:17;5.30;;;4.70;;
948;SDS011;461;51.436;7.312;2024-02-26T19:36:42;6.10;;;4.70;;
948;SDS011;461;51.436;7.312;2024-02-26T19:39:08;5.40;;;4.20;;
948;SDS011;461;51.436;7.312;2024-02-26T19:41:34;5.30;;;4.80;;
948;SDS011;461;51.436;7.312;2024-02-26T19:44:00;8.00;;;5.77;;
948;SDS011;461;51.436;7.312;2024-02-26T19:46:26;6.30;;;5.60;;
948;SDS011;461;51.436;7.312;2024-02-26T19:48:51;12.57;;;6.50;;
948;SDS011;461;51.436;7.312;2024-02-26T19:51:17;10.77;;;6.80;;
948;SDS011;461;51.436;7.312;2024-02-26T19:53:46;10.40;;;8.13;;
948;SDS011;461;51.436;7.312;2024-02-26T19:56:12;7.00;;;6.30;;
948;SDS011;461;51.436;7.312;2024-02-26T19:58:40;7.60;;;6.20;;
948;SDS011;461;51.436;7.312;2024-02-26T20:01:06;12.07;;;7.20;;
948;SDS011;461;51.436;7.312;2024-02-26T20:03:33;14.10;;;7.07;;
948;SDS011;461;51.436;7.312;2024-02-26T20:05:59;9.70;;;7.50;;
948;SDS011;461;51.436;7.312;2024-02-26T20:08:25;10.07;;;7.90;;
948;SDS011;461;51.436;7.312;2024-02-26T20:10:51;11.23;;;7.53;;
948;SDS011;461;51.436;7.312;2024-02-26T20:13:17;10.07;;;7.40;;
948;SDS011;461;51.436;7.312;2024-02-26T20:15:45;13.07;;;9.10;;
948;SDS011;461;51.436;7.312;2024-02-26T20:18:12;10.17;;;8.90;;
948;SDS011;461;51.436;7.312;2024-02-26T20:20:38;14.23;;;9.30;;
948;SDS011;461;51.436;7.312;2024-02-26T20:23:03;9.50;;;7.40;;
948;SDS011;461;51.436;7.312;2024-02-26T20:25:29;9.70;;;8.13;;
948;SDS011;461;51.436;7.312;2024-02-26T20:27:55;9.93;;;8.13;;
948;SDS011;461;51.436;7.312;2024-02-26T20:30:21;11.93;;;9.63;;
948;SDS011;461;51.436;7.312;2024-02-26T20:32:50;10.97;;;7.97;;
948;SDS011;461;51.436;7.312;2024-02-26T20:35:17;9.37;;;8.13;;
948;SDS011;461;51.436;7.312;2024-02-26T20:37:42;14.77;;;8.70;;
948;SDS011;461;51.436;7.312;2024-02-26T20:40:15;13.17;;;9.27;;
948;SDS011;461;51.436;7.312;2024-02-26T20:42:45;9.87;;;8.03;;
948;SDS011;461;51.436;7.312;2024-02-26T20:45:12;11.47;;;8.40;;
948;SDS011;461;51.436;7.312;2024-02-26T20:47:38;14.30;;;8.70;;
948;SDS011;461;51.436;7.312;2024-02-26T20:50:05;10.90;;;8.77;;
948;SDS011;461;51.436;7.312;2024-02-26T20:55:26;10.00;;;6.83;;
948;SDS011;461;51.436;7.312;2024-02-26T20:57:52;9.77;;;7.67;;
948;SDS011;461;51.436;7.312;2024-02-26T21:00:17;13.23;;;9.10;;
948;SDS011;461;51.436;7.312;2024-02-26T21:02:43;13.60;;;8.63;;
948;SDS011;461;51.436;7.312;2024-02-26T21:05:09;11.17;;;8.37;;
948;SDS011;461;51.436;7.312;2024-02-26T21:07:35;11.90;;;8.00;;
948;SDS011;461;51.436;7.312;2024-02-26T21:10:01;13.53;;;9.13;;
948;SDS011;461;51.436;7.312;2024-02-26T21:12:27;15.10;;;9.33;;
948;SDS011;461;51.436;7.312;2024-02-26T21:14:53;11.40;;;7.57;;
948;SDS011;461;51.436;7.312;2024-02-26T21:17:19;12.10;;;8.63;;
948;SDS011;461;51.436;7.312;2024-02-26T21:19:44;10.67;;;8.37;;
948;SDS011;461;51.436;7.312;2024-02-26T21:22:10;11.23;;;9.40;;
948;SDS011;461;51.436;7.312;2024-02-26T21:24:36;12.93;;;7.57;;
948;SDS011;461;51.436;7.312;2024-02-26T21:27:02;11.90;;;9.17;;
948;SDS011;461;51.436;7.312;2024-02-26T21:29:28;10.47;;;7.87;;
948;SDS011;461;51.436;7.312;2024-02-26T21:31:55;11.87;;;8.77;;
948;SDS011;461;51.436;7.312;2024-02-26T21:34:21;12.70;;;9.47;;
948;SDS011;461;51.436;7.312;2024-02-26T21:36:47;15.17;;;8.33;;
948;SDS011;461;51.436;7.312;2024-02-26T21:39:13;15.27;;;10.70;;
948;SDS011;461;51.436;7.312;2024-02-26T21:41:39;13.20;;;8.63;;
948;SDS011;461;51.436;7.312;2024-02-26T21:44:04;15.37;;;10.00;;
948;SDS011;461;51.436;7.312;2024-02-26T21:46:35;15.00;;;10.00;;
948;SDS011;461;51.436;7.312;2024-02-26T21:49:08;17.73;;;10.40;;
948;SDS011;461;51.436;7.312;2024-02-26T21:51:34;14.10;;;9.50;;
948;SDS011;461;51.436;7.312;2024-02-26T21:54:10;16.83;;;11.37;;
948;SDS011;461;51.436;7.312;2024-02-26T21:56:37;17.70;;;9.73;;
948;SDS011;461;51.436;7.312;2024-02-26T21:59:02;14.50;;;11.00;;
948;SDS011;461;51.436;7.312;2024-02-26T22:01:28;17.07;;;10.60;;
948;SDS011;461;51.436;7.312;2024-02-26T22:03:54;19.10;;;13.10;;
948;SDS011;461;51.436;7.312;2024-02-26T22:06:20;17.27;;;10.97;;
948;SDS011;461;51.436;7.312;2024-02-26T22:08:47;15.27;;;11.07;;
948;SDS011;461;51.436;7.312;2024-02-26T22:11:13;17.73;;;11.97;;
948;SDS011;461;51.436;7.312;2024-02-26T22:13:39;19.83;;;13.43;;
948;SDS011;461;51.436;7.312;2024-02-26T22:16:05;19.23;;;12.80;;
948;SDS011;461;51.436;7.312;2024-02-26T22:18:30;24.53;;;11.80;;
948;SDS011;461;51.436;7.312;2024-02-26T22:20:56;21.70;;;13.47;;
948;SDS011;461;51.436;7.312;2024-02-26T22:23:22;21.10;;;12.13;;
948;SDS011;461;51.436;7.312;2024-02-26T22:25:48;21.37;;;14.33;;
948;SDS011;461;51.436;7.312;2024-02-26T22:28:13;19.37;;;13.80;;
948;SDS011;461;51.436;7.312;2024-02-26T22:30:39;20.90;;;14.37;;
948;SDS011;461;51.436;7.312;2024-02-26T22:33:05;22.33;;;14.63;;
948;SDS011;461;51.436;7.312;2024-02-26T22:35:30;20.20;;;14.80;;
948;SDS011;461;51.436;7.312;2024-02-26T22:37:56;24.30;;;15.97;;
948;SDS011;461;51.436;7.312;2024-02-26T22:40:22;23.27;;;16.07;;
948;SDS011;461;51.436;7.312;2024-02-26T22:42:47;22.43;;;14.90;;
948;SDS011;461;51.436;7.312;2024-02-26T22:45:20;22.53;;;15.00;;
948;SDS011;461;51.436;7.312;2024-02-26T22:47:46;21.57;;;16.20;;
948;SDS011;461;51.436;7.312;2024-02-26T22:50:11;22.57;;;16.93;;
948;SDS011;461;51.436;7.312;2024-02-26T22:52:37;23.10;;;15.73;;
948;SDS011;461;51.436;7.312;2024-02-26T22:55:03;27.30;;;16.97;;
948;SDS011;461;51.436;7.312;2024-02-26T22:57:30;27.50;;;17.43;;
948;SDS011;461;51.436;7.312;2024-02-26T22:59:55;26.30;;;16.90;;
948;SDS011;461;51.436;7.312;2024-02-26T23:02:21;23.33;;;15.50;;
948;SDS011;461;51.436;7.312;2024-02-26T23:04:47;23.03;;;16.70;;
948;SDS011;461;51.436;7.312;2024-02-26T23:07:13;22.73;;;17.00;;
948;SDS011;461;51.436;7.312;2024-02-26T23:09:40;25.03;;;17.37;;
948;SDS011;461;51.436;7.312;2024-02-26T23:12:06;28.33;;;18.13;;
948;SDS011;461;51.436;7.312;2024-02-26T23:14:32;22.47;;;17.13;;
948;SDS011;461;51.436;7.312;2024-02-26T23:19:28;29.03;;;18.47;;
948;SDS011;461;51.436;7.312;2024-02-26T23:21:56;31.00;;;19.20;;
948;SDS011;461;51.436;7.312;2024-02-26T23:24:22;24.53;;;18.50;;
948;SDS011;461;51.436;7.312;2024-02-26T23:26:48;26.73;;;17.90;;
948;SDS011;461;51.436;7.312;2024-02-26T23:29:14;29.10;;;17.23;;
948;SDS011;461;51.436;7.312;2024-02-26T23:31:39;27.77;;;17.80;;
948;SDS011;461;51.436;7.312;2024-02-26T23:34:05;28.63;;;18.20;;
948;SDS011;461;51.436;7.312;2024-02-26T23:36:31;28.40;;;18.17;;
948;SDS011;461;51.436;7.312;2024-02-26T23:38:57;28.47;;;18.43;;
948;SDS011;461;51.436;7.312;2024-02-26T23:41:24;27.67;;;17.60;;
948;SDS011;461;51.436;7.312;2024-02-26T23:43:52;27.97;;;18.57;;
948;SDS011;461;51.436;7.312;2024-02-26T23:46:18;32.27;;;20.33;;
948;SDS011;461;51.436;7.312;2024-02-26T23:48:43;25.70;;;17.90;;
948;SDS011;461;51.436;7.312;2024-02-26T23:51:10;35.97;;;20.03;;
948;SDS011;461;51.436;7.312;2024-02-26T23:53:36;29.40;;;19.87;;
948;SDS011;461;51.436;7.312;2024-02-26T23:56:01;27.97;;;19.97;;
948;SDS011;461;51.436;7.312;2024-02-26T23:58:27;28.30;;;18.63;;
